createdAt,value
2022-09-22T00:00:55.226Z,101563.00
2022-09-22T00:05:55.178Z,101563.00
2022-09-22T00:10:55.545Z,101563.00
2022-09-22T00:15:55.233Z,101565.00
2022-09-22T00:20:55.148Z,101565.00
2022-09-22T00:25:55.147Z,101577.00
2022-09-22T00:30:55.160Z,101573.00
2022-09-22T00:35:55.303Z,101575.00
2022-09-22T00:40:55.111Z,101565.00
2022-09-22T00:45:55.442Z,101565.00
2022-09-22T00:50:55.177Z,101559.00
2022-09-22T00:55:55.152Z,101559.00
2022-09-22T01:00:55.280Z,101559.00
2022-09-22T01:05:55.244Z,101555.00
2022-09-22T01:10:55.226Z,101549.00
2022-09-22T01:15:55.274Z,101547.00
2022-09-22T01:20:55.175Z,101541.00
2022-09-22T01:25:55.208Z,101535.00
2022-09-22T01:30:55.235Z,101529.00
2022-09-22T01:35:55.241Z,101525.00
2022-09-22T01:40:55.201Z,101525.00
2022-09-22T01:45:55.194Z,101523.00
2022-09-22T01:50:55.201Z,101518.00
2022-09-22T01:55:55.236Z,101518.00
2022-09-22T02:00:56.221Z,101516.00
2022-09-22T02:05:56.481Z,101516.00
2022-09-22T02:10:58.085Z,101512.00
2022-09-22T02:16:01.414Z,101508.00
2022-09-22T02:21:01.204Z,101504.00
2022-09-22T02:26:01.763Z,101502.00
2022-09-22T02:31:19.073Z,101502.00
2022-09-22T02:36:03.269Z,101500.00
2022-09-22T02:41:03.244Z,101498.00
2022-09-22T02:46:03.298Z,101496.00
2022-09-22T02:51:03.244Z,101494.00
2022-09-22T02:56:03.246Z,101488.00
2022-09-22T03:01:03.241Z,101486.00
2022-09-22T03:06:03.357Z,101484.00
2022-09-22T03:11:03.286Z,101480.00
2022-09-22T03:16:03.323Z,101478.00
2022-09-22T03:21:03.647Z,101476.00
2022-09-22T03:26:03.304Z,101474.00
2022-09-22T03:31:03.467Z,101474.00
2022-09-22T03:36:06.294Z,101472.00
2022-09-22T03:41:06.336Z,101471.00
2022-09-22T03:46:06.474Z,101469.00
2022-09-22T03:51:06.297Z,101465.00
2022-09-22T03:56:06.342Z,101465.00
2022-09-22T04:01:06.643Z,101467.00
2022-09-22T04:06:06.382Z,101463.00
2022-09-22T04:11:07.122Z,101463.00
2022-09-22T04:16:07.326Z,101457.00
2022-09-22T04:21:07.730Z,101457.00
2022-09-22T04:26:07.540Z,101453.00
2022-09-22T04:31:07.512Z,101451.00
2022-09-22T04:36:07.464Z,101449.00
2022-09-22T04:41:07.540Z,101449.00
2022-09-22T04:46:07.387Z,101447.00
2022-09-22T04:51:07.318Z,101451.00
2022-09-22T04:56:07.413Z,101445.00
2022-09-22T05:01:10.819Z,101447.00
2022-09-22T05:06:10.415Z,101453.00
2022-09-22T05:11:10.528Z,101455.00
2022-09-22T05:16:10.572Z,101455.00
2022-09-22T05:21:10.383Z,101457.00
2022-09-22T05:26:10.503Z,101461.00
2022-09-22T05:31:10.284Z,101463.00
2022-09-22T05:36:10.389Z,101463.00
2022-09-22T05:41:10.312Z,101467.00
2022-09-22T05:46:10.485Z,101469.00
2022-09-22T05:51:10.350Z,101471.00
2022-09-22T05:56:10.316Z,101467.00
2022-09-22T06:01:10.469Z,101471.00
2022-09-22T06:06:10.531Z,101471.00
2022-09-22T06:11:10.321Z,101469.00
2022-09-22T06:16:10.425Z,101471.00
2022-09-22T06:21:10.369Z,101472.00
2022-09-22T06:26:10.399Z,101471.00
2022-09-22T06:31:10.338Z,101472.00
2022-09-22T06:36:10.423Z,101471.00
2022-09-22T06:41:10.411Z,101472.00
2022-09-22T06:46:10.571Z,101478.00
2022-09-22T06:51:13.082Z,101478.00
2022-09-22T06:56:12.426Z,101474.00
2022-09-22T07:01:12.463Z,101474.00
2022-09-22T07:06:19.379Z,101472.00
2022-09-22T07:11:17.339Z,101472.00
2022-09-22T07:16:17.543Z,101471.00
2022-09-22T07:21:17.594Z,101476.00
2022-09-22T07:26:17.384Z,101476.00
2022-09-22T07:31:17.484Z,101478.00
2022-09-22T07:36:18.071Z,101478.00
2022-09-22T07:41:21.458Z,101474.00
2022-09-22T07:46:21.487Z,101476.00
2022-09-22T07:51:21.422Z,101474.00
2022-09-22T07:56:23.357Z,101482.00
2022-09-22T08:01:23.485Z,101484.00
2022-09-22T08:06:24.058Z,101486.00
2022-09-22T08:11:24.566Z,101488.00
2022-09-22T08:16:26.369Z,101488.00
2022-09-22T08:21:26.576Z,101482.00
2022-09-22T08:26:26.520Z,101474.00
2022-09-22T08:31:26.631Z,101471.00
2022-09-22T08:36:27.337Z,101463.00
2022-09-22T08:41:27.458Z,101455.00
2022-09-22T08:46:27.681Z,101451.00
2022-09-22T08:51:46.146Z,101445.00
2022-09-22T08:56:46.513Z,101445.00
2022-09-22T09:01:46.569Z,101441.00
2022-09-22T09:06:46.802Z,101441.00
2022-09-22T09:11:46.887Z,101435.00
2022-09-22T09:16:46.583Z,101439.00
2022-09-22T09:21:46.599Z,101435.00
2022-09-22T09:26:48.550Z,101433.00
2022-09-22T09:31:48.780Z,101429.00
2022-09-22T09:36:48.614Z,101422.00
2022-09-22T09:41:49.320Z,101418.00
2022-09-22T09:46:49.790Z,101412.00
2022-09-22T09:51:49.584Z,101402.00
2022-09-22T09:56:49.519Z,101394.00
2022-09-22T10:01:50.284Z,101386.00
2022-09-22T10:06:51.402Z,101378.00
2022-09-22T10:11:59.871Z,101371.00
2022-09-22T10:16:59.581Z,101363.00
2022-09-22T10:22:00.265Z,101355.00
2022-09-22T10:27:03.806Z,101347.00
2022-09-22T10:32:02.624Z,101345.00
2022-09-22T10:37:02.713Z,101347.00
2022-09-22T10:42:02.602Z,101343.00
2022-09-22T10:47:02.732Z,101341.00
2022-09-22T10:52:02.941Z,101339.00
2022-09-22T10:57:04.608Z,101337.00
2022-09-22T11:02:04.796Z,101335.00
2022-09-22T11:07:23.093Z,101335.00
2022-09-22T11:12:22.669Z,101333.00
2022-09-22T11:17:22.660Z,101330.00
2022-09-22T11:22:23.577Z,101328.00
2022-09-22T11:27:23.635Z,101324.00
2022-09-22T11:32:23.870Z,101320.00
2022-09-22T11:37:26.628Z,101316.00
2022-09-22T11:42:26.867Z,101307.00
2022-09-22T11:47:26.830Z,101297.00
2022-09-22T11:52:26.606Z,101291.00
2022-09-22T11:57:26.674Z,101287.00
2022-09-22T12:02:26.903Z,101282.00
2022-09-22T12:07:26.726Z,101282.00
2022-09-22T12:12:26.730Z,101272.00
2022-09-22T12:17:27.396Z,101266.00
2022-09-22T12:22:27.666Z,101260.00
2022-09-22T12:27:27.704Z,101252.00
2022-09-22T12:32:29.130Z,101248.00
2022-09-22T12:37:29.432Z,101248.00
2022-09-22T12:42:29.668Z,101240.00
2022-09-22T12:47:29.785Z,101231.00
2022-09-22T12:52:29.837Z,101231.00
2022-09-22T12:57:29.834Z,101227.00
2022-09-22T13:02:29.826Z,101225.00
2022-09-22T13:07:29.762Z,101223.00
2022-09-22T13:12:30.486Z,101221.00
2022-09-22T13:17:30.712Z,101215.00
2022-09-22T13:22:30.709Z,101209.00
2022-09-22T13:27:30.709Z,101211.00
2022-09-22T13:32:30.704Z,101203.00
2022-09-22T13:37:30.883Z,101201.00
2022-09-22T13:42:31.840Z,101190.00
2022-09-22T13:47:33.362Z,101188.00
2022-09-22T13:52:33.721Z,101190.00
2022-09-22T13:57:34.137Z,101186.00
2022-09-22T14:02:33.937Z,101176.00
2022-09-22T14:07:38.318Z,101170.00
2022-09-22T14:12:35.848Z,101166.00
2022-09-22T14:17:36.500Z,101164.00
2022-09-22T14:22:36.856Z,101164.00
2022-09-22T14:27:36.928Z,101158.00
2022-09-22T14:32:36.864Z,101154.00
2022-09-22T14:37:38.726Z,101146.00
2022-09-22T14:42:38.921Z,101143.00
2022-09-22T14:47:40.396Z,101137.00
2022-09-22T14:52:40.892Z,101131.00
2022-09-22T14:57:40.866Z,101129.00
2022-09-22T15:02:41.202Z,101125.00
2022-09-22T15:07:42.630Z,101119.00
2022-09-22T15:12:46.205Z,101115.00
2022-09-22T15:18:03.157Z,101115.00
2022-09-22T15:23:03.684Z,101109.00
2022-09-22T15:28:05.676Z,101103.00
2022-09-22T15:33:06.478Z,101105.00
2022-09-22T15:38:06.904Z,101097.00
2022-09-22T15:43:13.070Z,101096.00
2022-09-22T15:48:08.987Z,101090.00
2022-09-22T15:53:08.904Z,101086.00
2022-09-22T15:58:09.125Z,101082.00
2022-09-22T16:03:09.036Z,101080.00
2022-09-22T16:08:08.950Z,101076.00
2022-09-22T16:13:08.992Z,101072.00
2022-09-22T16:18:09.864Z,101074.00
2022-09-22T16:23:10.354Z,101072.00
2022-09-22T16:28:10.101Z,101070.00
2022-09-22T16:33:09.930Z,101068.00
2022-09-22T16:38:11.260Z,101066.00
2022-09-22T16:43:12.659Z,101064.00
2022-09-22T16:48:13.839Z,101064.00
2022-09-22T16:53:15.146Z,101064.00
2022-09-22T16:58:14.939Z,101066.00
2022-09-22T17:03:14.967Z,101066.00
2022-09-22T17:08:15.084Z,101068.00
2022-09-22T17:13:17.006Z,101070.00
2022-09-22T17:18:16.973Z,101070.00
2022-09-22T17:23:18.909Z,101066.00
2022-09-22T17:28:19.022Z,101062.00
2022-09-22T17:33:18.978Z,101064.00
2022-09-22T17:38:19.318Z,101064.00
2022-09-22T17:43:20.903Z,101060.00
2022-09-22T17:48:39.180Z,101058.00
2022-09-22T17:53:57.249Z,101058.00
2022-09-22T17:58:57.013Z,101064.00
2022-09-22T18:03:56.985Z,101066.00
2022-09-22T18:08:57.166Z,101064.00
2022-09-22T18:13:57.040Z,101066.00
2022-09-22T18:18:56.976Z,101066.00
2022-09-22T18:23:58.363Z,101064.00
2022-09-22T18:28:58.163Z,101066.00
2022-09-22T18:33:57.972Z,101066.00
2022-09-22T18:38:58.070Z,101066.00
2022-09-22T18:43:59.131Z,101072.00
2022-09-22T18:49:01.095Z,101068.00
2022-09-22T18:54:01.709Z,101068.00
2022-09-22T18:59:02.020Z,101070.00
2022-09-22T19:04:02.139Z,101068.00
2022-09-22T19:09:02.136Z,101062.00
2022-09-22T19:14:02.046Z,101062.00
2022-09-22T19:19:02.278Z,101060.00
2022-09-22T19:24:03.703Z,101060.00
2022-09-22T19:29:04.822Z,101050.00
2022-09-22T19:34:05.171Z,101050.00
2022-09-22T19:39:06.741Z,101058.00
2022-09-22T19:44:07.103Z,101050.00
2022-09-22T19:49:07.177Z,101048.00
2022-09-22T19:54:07.259Z,101048.00
2022-09-22T19:59:07.200Z,101048.00
2022-09-22T20:04:07.127Z,101046.00
2022-09-22T20:09:07.341Z,101046.00
2022-09-22T20:14:22.702Z,101042.00
2022-09-22T20:19:23.041Z,101044.00
2022-09-22T20:24:23.088Z,101042.00
2022-09-22T20:29:23.120Z,101042.00
2022-09-22T20:34:24.125Z,101042.00
2022-09-22T20:39:24.565Z,101040.00
2022-09-22T20:44:24.928Z,101036.00
2022-09-22T20:49:25.699Z,101032.00
2022-09-22T20:54:26.245Z,101032.00
2022-09-22T20:59:26.102Z,101026.00
2022-09-22T21:04:26.085Z,101024.00
2022-09-22T21:09:44.605Z,101022.00
2022-09-22T21:14:45.331Z,101024.00
2022-09-22T21:19:46.052Z,101024.00
2022-09-22T21:24:47.978Z,101026.00
2022-09-22T21:29:48.710Z,101022.00
2022-09-22T21:34:49.114Z,101020.00
2022-09-22T21:39:49.408Z,101022.00
2022-09-22T21:44:49.122Z,101020.00
2022-09-22T21:49:50.045Z,101020.00
2022-09-22T21:54:50.255Z,101014.00
2022-09-22T21:59:53.772Z,101011.00
2022-09-22T22:04:54.001Z,101011.00
2022-09-22T22:09:54.375Z,101007.00
2022-09-22T22:14:56.095Z,101005.00
2022-09-22T22:19:56.186Z,101003.00
2022-09-22T22:24:56.268Z,101001.00
2022-09-22T22:29:56.191Z,100993.00
2022-09-22T22:34:56.172Z,100987.00
2022-09-22T22:39:56.271Z,100985.00
2022-09-22T22:44:56.303Z,100983.00
2022-09-22T22:49:56.236Z,100981.00
2022-09-22T22:54:56.309Z,100981.00
2022-09-22T22:59:57.276Z,100977.00
2022-09-22T23:04:59.550Z,100977.00
2022-09-22T23:10:06.543Z,100977.00
2022-09-22T23:15:08.852Z,100975.00
2022-09-22T23:20:09.186Z,100975.00
2022-09-22T23:25:09.766Z,100971.00
2022-09-22T23:30:10.273Z,100969.00
2022-09-22T23:35:10.238Z,100964.00
2022-09-22T23:40:10.355Z,100958.00
2022-09-22T23:45:10.393Z,100954.00
2022-09-22T23:50:10.543Z,100948.00
2022-09-22T23:55:10.312Z,100946.00
